createdAt,value
2022-11-01T00:05:13.260Z,9.20
2022-11-01T00:25:22.167Z,9.40
2022-11-01T00:40:25.548Z,9.60
2022-11-01T00:55:29.001Z,9.20
2022-11-01T01:00:42.220Z,9.00
2022-11-01T01:10:46.364Z,9.00
2022-11-01T01:25:50.461Z,9.10
2022-11-01T01:33:20.724Z,9.20
2022-11-01T01:40:53.519Z,9.10
2022-11-01T01:48:27.713Z,9.00
2022-11-01T01:51:02.103Z,8.90
2022-11-01T01:53:35.951Z,8.90
2022-11-01T01:56:13.094Z,9.00
2022-11-01T01:58:45.876Z,8.90
2022-11-01T02:01:16.083Z,8.90
2022-11-01T02:03:47.153Z,8.90
2022-11-01T02:06:20.165Z,8.90
2022-11-01T02:08:52.823Z,9.10
2022-11-01T02:11:25.972Z,9.30
2022-11-01T02:13:56.122Z,9.50
2022-11-01T02:16:45.489Z,9.20
2022-11-01T02:19:54.395Z,9.20
2022-11-01T02:22:34.393Z,9.20
2022-11-01T02:25:23.579Z,9.00
2022-11-01T02:28:11.628Z,9.00
2022-11-01T02:30:48.216Z,8.90
2022-11-01T02:33:32.838Z,8.90
2022-11-01T02:36:08.132Z,8.90
2022-11-01T02:38:42.845Z,8.90
2022-11-01T02:41:17.653Z,8.80
2022-11-01T02:43:55.028Z,9.00
2022-11-01T02:46:38.430Z,9.00
2022-11-01T02:49:14.003Z,9.00
2022-11-01T02:51:46.096Z,9.00
2022-11-01T02:54:23.567Z,9.00
2022-11-01T02:56:53.905Z,9.00
2022-11-01T02:59:28.423Z,9.10
2022-11-01T03:02:04.707Z,9.20
2022-11-01T03:04:38.041Z,9.30
2022-11-01T03:07:11.707Z,9.40
2022-11-01T03:09:42.412Z,9.50
2022-11-01T03:12:18.895Z,9.50
2022-11-01T03:14:57.664Z,9.50
2022-11-01T03:17:35.403Z,9.50
2022-11-01T03:20:16.459Z,9.50
2022-11-01T03:22:49.461Z,9.50
2022-11-01T03:25:35.713Z,9.50
2022-11-01T03:28:09.342Z,9.50
2022-11-01T03:30:44.323Z,9.50
2022-11-01T03:33:16.361Z,9.50
2022-11-01T03:35:52.390Z,9.50
2022-11-01T03:38:27.236Z,9.40
2022-11-01T03:41:03.292Z,9.40
2022-11-01T03:43:34.719Z,9.30
2022-11-01T03:51:07.759Z,9.40
2022-11-01T03:56:08.642Z,9.30
2022-11-01T04:01:17.764Z,9.40
2022-11-01T04:06:20.751Z,9.40
2022-11-01T04:21:49.144Z,9.20
2022-11-01T04:37:14.973Z,9.20
2022-11-01T04:52:19.784Z,9.30
2022-11-01T04:59:56.263Z,9.20
2022-11-01T05:02:26.979Z,9.20
2022-11-01T05:07:30.953Z,9.30
2022-11-01T05:22:34.344Z,9.40
2022-11-01T05:37:38.827Z,9.50
2022-11-01T05:40:10.495Z,9.50
2022-11-01T05:42:41.536Z,9.50
2022-11-01T05:45:12.762Z,9.50
2022-11-01T05:50:15.135Z,9.50
2022-11-01T05:52:47.784Z,9.50
2022-11-01T06:07:51.344Z,9.50
2022-11-01T06:22:55.121Z,9.40
2022-11-01T06:27:57.020Z,9.50
2022-11-01T06:33:02.191Z,9.50
2022-11-01T06:38:09.420Z,9.60
2022-11-01T06:40:39.946Z,9.60
2022-11-01T06:53:13.363Z,9.70
2022-11-01T07:03:15.807Z,9.90
2022-11-01T07:08:19.011Z,10.00
2022-11-01T07:10:54.416Z,10.00
2022-11-01T07:23:29.344Z,10.20
2022-11-01T07:25:59.326Z,10.20
2022-11-01T07:31:00.029Z,10.30
2022-11-01T07:33:30.111Z,10.30
2022-11-01T07:38:32.999Z,10.50
2022-11-01T07:43:34.374Z,10.80
2022-11-01T07:46:07.412Z,10.80
2022-11-01T07:51:09.715Z,10.90
2022-11-01T07:53:42.369Z,10.70
2022-11-01T07:56:14.334Z,10.80
2022-11-01T08:03:44.855Z,10.90
2022-11-01T08:06:14.828Z,11.00
2022-11-01T08:08:47.357Z,11.00
2022-11-01T08:11:17.257Z,11.00
2022-11-01T08:13:47.763Z,11.20
2022-11-01T08:16:18.413Z,11.20
2022-11-01T08:23:54.463Z,11.30
2022-11-01T08:26:25.400Z,11.40
2022-11-01T08:28:55.253Z,11.40
2022-11-01T08:31:25.117Z,11.40
2022-11-01T08:38:58.145Z,11.70
2022-11-01T08:43:59.844Z,11.80
2022-11-01T08:46:29.721Z,11.90
2022-11-01T08:49:00.567Z,12.00
2022-11-01T08:51:32.662Z,12.10
2022-11-01T08:54:05.435Z,12.10
2022-11-01T08:56:35.436Z,12.20
2022-11-01T09:01:35.714Z,12.40
2022-11-01T09:04:06.377Z,12.50
2022-11-01T09:06:36.629Z,12.70
2022-11-01T09:09:10.208Z,12.60
2022-11-01T09:11:40.397Z,12.70
2022-11-01T09:14:10.332Z,15.70
2022-11-01T09:24:14.100Z,13.40
2022-11-01T09:29:14.594Z,13.90
2022-11-01T09:31:44.506Z,13.80
2022-11-01T09:34:14.692Z,13.90
2022-11-01T09:39:22.010Z,14.30
2022-11-01T09:41:54.731Z,14.40
2022-11-01T09:44:29.944Z,14.60
2022-11-01T09:47:03.461Z,14.70
2022-11-01T09:49:38.110Z,14.60
2022-11-01T09:52:08.942Z,14.60
2022-11-01T09:54:41.450Z,14.60
2022-11-01T09:57:22.140Z,14.50
2022-11-01T10:00:04.410Z,14.50
2022-11-01T10:02:59.101Z,14.70
2022-11-01T10:05:41.185Z,14.70
2022-11-01T10:08:19.752Z,14.70
2022-11-01T10:11:01.821Z,14.90
2022-11-01T10:13:46.137Z,15.00
2022-11-01T10:16:19.040Z,15.00
2022-11-01T10:18:57.747Z,15.20
2022-11-01T10:21:31.468Z,15.20
2022-11-01T10:24:06.167Z,15.00
2022-11-01T10:26:44.438Z,14.90
2022-11-01T10:29:19.798Z,14.90
2022-11-01T10:31:54.447Z,15.00
2022-11-01T10:34:29.786Z,14.90
2022-11-01T10:37:17.199Z,15.00
2022-11-01T10:39:59.919Z,15.00
2022-11-01T10:42:35.688Z,15.00
2022-11-01T10:45:08.868Z,15.00
2022-11-01T10:50:20.491Z,15.00
2022-11-01T10:52:55.574Z,15.00
2022-11-01T10:55:29.494Z,15.10
2022-11-01T10:58:03.065Z,15.10
2022-11-01T11:00:34.602Z,15.20
2022-11-01T11:03:21.023Z,15.30
2022-11-01T11:05:51.776Z,15.20
2022-11-01T11:08:25.052Z,15.60
2022-11-01T11:11:04.403Z,15.70
2022-11-01T11:13:38.016Z,15.90
2022-11-01T11:16:08.880Z,16.10
2022-11-01T11:18:43.507Z,16.40
2022-11-01T11:21:15.788Z,16.60
2022-11-01T11:23:47.912Z,16.80
2022-11-01T11:26:21.281Z,16.90
2022-11-01T11:28:57.095Z,17.00
2022-11-01T11:31:30.190Z,16.90
2022-11-01T11:34:03.763Z,17.00
2022-11-01T11:36:37.086Z,16.90
2022-11-01T11:39:08.228Z,17.20
